createdAt,value
2022-09-17T00:01:31.638Z,121.63
2022-09-17T00:04:04.120Z,122.27
2022-09-17T00:06:34.848Z,122.90
2022-09-17T00:09:04.633Z,122.57
2022-09-17T00:11:36.434Z,122.03
2022-09-17T00:14:07.591Z,123.80
2022-09-17T00:16:39.460Z,122.47
2022-09-17T00:19:13.906Z,122.70
2022-09-17T00:21:42.243Z,122.77
2022-09-17T00:24:13.722Z,121.37
2022-09-17T00:26:41.830Z,123.30
2022-09-17T00:29:10.229Z,123.47
2022-09-17T00:31:38.331Z,123.20
2022-09-17T00:34:06.482Z,123.10
2022-09-17T00:36:39.660Z,122.57
2022-09-17T00:39:11.131Z,122.87
2022-09-17T00:41:39.594Z,123.80
2022-09-17T00:44:56.460Z,123.03
2022-09-17T00:47:39.513Z,123.50
2022-09-17T00:50:21.768Z,121.10
2022-09-17T00:52:58.370Z,123.80
2022-09-17T00:55:39.837Z,123.20
2022-09-17T00:58:11.602Z,122.17
2022-09-17T01:00:39.712Z,122.77
2022-09-17T01:03:07.705Z,123.40
2022-09-17T01:06:04.817Z,123.17
2022-09-17T01:09:04.411Z,122.07
2022-09-17T01:12:27.446Z,121.80
2022-09-17T01:15:24.334Z,122.37
2022-09-17T01:18:22.507Z,123.37
2022-09-17T01:21:25.630Z,121.33
2022-09-17T01:24:28.735Z,122.80
2022-09-17T01:27:54.970Z,122.17
2022-09-17T01:31:04.711Z,122.40
2022-09-17T01:34:19.054Z,122.57
2022-09-17T01:37:04.683Z,123.20
2022-09-17T01:40:03.301Z,122.90
2022-09-17T01:42:43.760Z,122.67
2022-09-17T01:45:38.723Z,123.37
2022-09-17T01:48:18.787Z,122.60
2022-09-17T01:51:07.847Z,123.43
2022-09-17T01:53:57.801Z,122.17
2022-09-17T01:56:36.731Z,122.70
2022-09-17T01:59:17.577Z,122.17
2022-09-17T02:01:48.420Z,122.47
2022-09-17T02:04:26.516Z,123.27
2022-09-17T02:07:00.755Z,120.87
2022-09-17T02:09:35.583Z,122.23
2022-09-17T02:12:09.844Z,122.73
2022-09-17T02:14:54.059Z,122.93
2022-09-17T02:17:46.644Z,122.60
2022-09-17T02:20:19.717Z,122.10
2022-09-17T02:23:28.019Z,122.17
2022-09-17T02:26:10.684Z,122.00
2022-09-17T02:29:09.619Z,122.80
2022-09-17T02:31:36.640Z,122.30
2022-09-17T02:34:05.656Z,122.17
2022-09-17T02:36:35.075Z,122.87
2022-09-17T02:39:04.467Z,122.83
2022-09-17T02:42:22.324Z,122.60
2022-09-17T02:45:28.940Z,121.97
2022-09-17T02:48:38.701Z,121.87
2022-09-17T02:51:19.115Z,120.90
2022-09-17T02:54:09.740Z,121.87
2022-09-17T02:56:54.900Z,122.20
2022-09-17T02:59:41.777Z,122.47
2022-09-17T03:02:20.325Z,123.07
2022-09-17T03:04:51.852Z,123.17
2022-09-17T03:07:21.816Z,121.70
2022-09-17T03:09:49.564Z,122.57
2022-09-17T03:12:17.461Z,121.83
2022-09-17T03:14:44.477Z,121.97
2022-09-17T03:17:12.464Z,122.27
2022-09-17T03:19:39.864Z,120.57
2022-09-17T03:22:07.293Z,121.03
2022-09-17T03:24:34.721Z,123.07
2022-09-17T03:27:02.260Z,121.90
2022-09-17T03:29:29.661Z,121.20
2022-09-17T03:31:57.240Z,121.77
2022-09-17T03:34:24.794Z,121.77
2022-09-17T03:36:52.298Z,122.97
2022-09-17T03:39:19.801Z,121.00
2022-09-17T03:41:46.714Z,121.90
2022-09-17T03:44:15.309Z,122.97
2022-09-17T03:46:43.752Z,122.87
2022-09-17T03:49:11.281Z,122.30
2022-09-17T03:51:41.365Z,122.17
2022-09-17T03:54:09.849Z,122.50
2022-09-17T03:56:37.218Z,122.30
2022-09-17T03:59:04.658Z,121.60
2022-09-17T04:01:31.679Z,122.00
2022-09-17T04:03:59.261Z,121.60
2022-09-17T04:06:26.737Z,121.20
2022-09-17T04:08:54.265Z,121.27
2022-09-17T04:11:21.758Z,120.10
2022-09-17T04:13:49.313Z,119.97
2022-09-17T04:16:16.916Z,120.87
2022-09-17T04:18:44.374Z,122.47
2022-09-17T04:21:11.821Z,122.40
2022-09-17T04:23:39.286Z,122.13
2022-09-17T04:26:06.755Z,120.97
2022-09-17T04:28:34.274Z,121.90
2022-09-17T04:31:01.787Z,122.77
2022-09-17T04:33:29.182Z,121.87
2022-09-17T04:35:56.522Z,122.87
2022-09-17T04:38:24.258Z,122.40
2022-09-17T04:40:51.882Z,121.37
2022-09-17T04:43:19.346Z,121.47
2022-09-17T04:45:48.130Z,121.80
2022-09-17T04:48:15.498Z,122.83
2022-09-17T04:50:42.962Z,122.87
2022-09-17T04:53:10.777Z,122.50
2022-09-17T04:55:38.238Z,121.07
2022-09-17T04:58:05.679Z,122.40
2022-09-17T05:00:33.753Z,122.30
2022-09-17T05:03:01.231Z,121.90
2022-09-17T05:05:29.099Z,121.70
2022-09-17T05:07:56.459Z,121.50
2022-09-17T05:10:24.297Z,121.20
2022-09-17T05:12:56.428Z,121.77
2022-09-17T05:15:25.844Z,122.10
2022-09-17T05:17:53.755Z,120.87
2022-09-17T05:20:22.232Z,121.77
2022-09-17T05:22:52.055Z,121.40
2022-09-17T05:25:24.392Z,121.70
2022-09-17T05:27:53.535Z,121.63
2022-09-17T05:30:21.464Z,120.60
2022-09-17T05:32:49.295Z,121.23
2022-09-17T05:35:16.800Z,119.83
2022-09-17T05:37:44.236Z,122.17
2022-09-17T05:40:11.799Z,121.87
2022-09-17T05:42:39.340Z,121.60
2022-09-17T05:45:07.456Z,122.13
2022-09-17T05:47:35.323Z,120.87
2022-09-17T05:50:02.348Z,121.30
2022-09-17T05:52:29.969Z,119.20
2022-09-17T05:54:57.594Z,120.87
2022-09-17T05:57:28.684Z,121.53
2022-09-17T05:59:56.164Z,121.50
2022-09-17T06:02:23.547Z,121.80
2022-09-17T06:04:51.037Z,122.37
2022-09-17T06:07:18.444Z,121.10
2022-09-17T06:09:45.913Z,121.40
2022-09-17T06:12:13.374Z,121.60
2022-09-17T06:14:40.784Z,121.60
2022-09-17T06:17:08.284Z,122.07
2022-09-17T06:19:35.897Z,120.43
2022-09-17T06:22:04.912Z,120.80
2022-09-17T06:24:32.988Z,121.90
2022-09-17T06:27:00.505Z,119.87
2022-09-17T06:29:27.937Z,121.90
2022-09-17T06:31:55.453Z,121.60
2022-09-17T06:34:23.173Z,121.80
2022-09-17T06:36:50.536Z,121.13
2022-09-17T06:39:17.552Z,121.60
2022-09-17T06:41:46.016Z,121.30
2022-09-17T06:44:13.398Z,121.80
2022-09-17T06:46:40.813Z,121.70
2022-09-17T06:49:08.299Z,121.87
2022-09-17T06:51:35.656Z,121.50
2022-09-17T06:54:03.305Z,121.43
2022-09-17T06:56:30.774Z,120.87
2022-09-17T06:58:58.287Z,122.37
2022-09-17T07:01:25.772Z,121.87
2022-09-17T07:03:53.277Z,120.33
2022-09-17T07:06:20.863Z,121.87
2022-09-17T07:08:48.432Z,121.60
2022-09-17T07:11:18.637Z,120.43
2022-09-17T07:13:46.022Z,121.80
2022-09-17T07:16:13.473Z,121.97
2022-09-17T07:18:40.969Z,122.20
2022-09-17T07:21:09.918Z,121.67
2022-09-17T07:23:38.174Z,120.53
2022-09-17T07:26:08.927Z,122.27
2022-09-17T07:28:39.021Z,122.27
2022-09-17T07:31:10.249Z,122.57
2022-09-17T07:33:40.936Z,121.17
2022-09-17T07:36:13.998Z,120.53
2022-09-17T07:38:41.426Z,121.10
2022-09-17T07:41:13.906Z,122.20
2022-09-17T07:43:42.374Z,121.13
2022-09-17T07:46:17.462Z,121.77
2022-09-17T07:48:46.622Z,122.87
2022-09-17T07:51:23.558Z,120.70
2022-09-17T07:53:59.243Z,122.47
2022-09-17T07:56:27.907Z,121.37
2022-09-17T07:58:55.969Z,122.37
2022-09-17T08:04:03.568Z,122.80
2022-09-17T08:06:31.339Z,122.17
2022-09-17T08:08:59.991Z,122.73
2022-09-17T08:11:55.565Z,121.27
2022-09-17T08:14:17.798Z,122.37
2022-09-17T08:16:47.228Z,122.37
2022-09-17T08:19:15.015Z,122.20
2022-09-17T08:21:42.371Z,123.23
2022-09-17T08:24:09.930Z,123.17
2022-09-17T08:26:38.015Z,120.87
2022-09-17T08:29:05.614Z,121.90
2022-09-17T08:31:33.381Z,122.47
2022-09-17T08:34:01.237Z,122.90
2022-09-17T08:36:28.570Z,121.57
2022-09-17T08:38:57.800Z,121.50
2022-09-17T08:41:57.139Z,122.37
2022-09-17T08:44:47.736Z,122.03
2022-09-17T08:47:43.375Z,122.93
2022-09-17T08:50:33.432Z,122.40
2022-09-17T08:53:55.659Z,122.57
2022-09-17T08:56:24.127Z,120.37
2022-09-17T08:59:21.532Z,121.50
2022-09-17T09:02:07.201Z,122.27
2022-09-17T09:05:10.219Z,121.57
2022-09-17T09:07:44.908Z,120.80
2022-09-17T09:10:23.239Z,120.07
2022-09-17T09:12:53.163Z,122.43
2022-09-17T09:15:47.397Z,121.70
2022-09-17T09:18:30.177Z,122.00
2022-09-17T09:21:30.091Z,122.30
2022-09-17T09:24:23.063Z,121.60
2022-09-17T09:27:10.075Z,121.17
2022-09-17T09:30:13.708Z,122.00
2022-09-17T09:33:18.310Z,122.47
2022-09-17T09:35:46.064Z,121.47
2022-09-17T09:39:03.453Z,120.30
2022-09-17T09:41:54.180Z,121.90
2022-09-17T09:44:24.500Z,120.87
2022-09-17T09:47:26.914Z,120.30
2022-09-17T09:50:16.853Z,121.40
2022-09-17T09:53:12.527Z,121.47
2022-09-17T09:56:32.490Z,121.30
2022-09-17T09:58:59.973Z,121.00
2022-09-17T10:01:32.467Z,121.37
2022-09-17T10:03:59.956Z,120.83
2022-09-17T10:06:31.729Z,120.17
2022-09-17T10:09:02.349Z,120.30
2022-09-17T10:11:35.147Z,121.07
2022-09-17T10:14:28.425Z,120.57
2022-09-17T10:17:26.501Z,120.17
2022-09-17T10:20:05.572Z,119.67
2022-09-17T10:22:36.529Z,120.97
2022-09-17T10:25:21.433Z,119.50
2022-09-17T10:27:49.477Z,120.00
2022-09-17T10:30:18.952Z,120.37
2022-09-17T10:33:19.822Z,120.40
2022-09-17T10:36:01.578Z,120.13
2022-09-17T10:38:46.167Z,120.17
2022-09-17T10:41:24.800Z,119.90
2022-09-17T10:43:52.688Z,120.40
2022-09-17T10:46:30.621Z,120.00
2022-09-17T10:49:31.090Z,120.27
2022-09-17T10:52:22.142Z,119.90
2022-09-17T10:55:25.596Z,120.20
2022-09-17T10:57:58.774Z,119.90
2022-09-17T11:00:30.251Z,119.67
2022-09-17T11:03:25.658Z,120.03
2022-09-17T11:06:41.594Z,119.50
2022-09-17T11:09:37.220Z,119.30
2022-09-17T11:12:16.542Z,119.30
2022-09-17T11:14:49.944Z,119.33
2022-09-17T11:17:36.066Z,119.87
2022-09-17T11:20:45.011Z,119.70
2022-09-17T11:24:05.495Z,119.83
2022-09-17T11:26:48.670Z,120.37
2022-09-17T11:29:40.566Z,120.40
2022-09-17T11:32:40.514Z,120.17
2022-09-17T11:35:30.899Z,119.73
2022-09-17T11:38:20.098Z,119.50
2022-09-17T11:41:07.155Z,119.23
2022-09-17T11:43:40.315Z,118.30
2022-09-17T11:46:18.396Z,119.40
2022-09-17T11:49:24.007Z,118.80
2022-09-17T11:52:07.464Z,118.77
2022-09-17T11:54:54.319Z,118.70
2022-09-17T11:57:37.602Z,117.97
2022-09-17T12:00:20.863Z,118.33
2022-09-17T12:02:57.147Z,118.70
2022-09-17T12:05:43.087Z,118.87
2022-09-17T12:08:57.388Z,119.17
2022-09-17T12:11:56.047Z,119.27
2022-09-17T12:14:29.964Z,119.30
2022-09-17T12:17:03.453Z,119.53
2022-09-17T12:19:45.513Z,119.70
2022-09-17T12:22:17.883Z,119.60
2022-09-17T12:24:45.495Z,120.00
2022-09-17T12:27:24.139Z,120.20
2022-09-17T12:30:12.992Z,119.50
2022-09-17T12:33:13.844Z,118.87
2022-09-17T12:36:11.576Z,118.80
2022-09-17T12:39:07.684Z,119.47
2022-09-17T12:42:07.091Z,119.67
2022-09-17T12:45:22.061Z,120.20
2022-09-17T12:48:44.838Z,119.40
2022-09-17T12:51:37.452Z,118.77
2022-09-17T12:54:41.830Z,119.63
2022-09-17T12:57:24.989Z,120.33
2022-09-17T13:00:08.631Z,119.77
2022-09-17T13:03:03.701Z,120.47
2022-09-17T13:06:00.457Z,120.67
2022-09-17T13:09:06.080Z,120.57
2022-09-17T13:12:03.902Z,120.43
2022-09-17T13:14:51.946Z,120.63
2022-09-17T13:17:36.976Z,120.40
2022-09-17T13:20:29.596Z,120.40
2022-09-17T13:22:58.089Z,120.40
2022-09-17T13:25:26.954Z,120.33
2022-09-17T13:28:11.193Z,120.13
2022-09-17T13:31:00.654Z,120.50
2022-09-17T13:33:54.375Z,120.83
2022-09-17T13:36:34.489Z,120.77
2022-09-17T13:39:04.105Z,120.70
2022-09-17T13:41:36.635Z,121.10
2022-09-17T13:44:10.005Z,120.50
2022-09-17T13:46:38.558Z,120.70
2022-09-17T13:49:16.749Z,120.30
2022-09-17T13:51:47.869Z,120.77
2022-09-17T13:54:18.127Z,120.40
2022-09-17T13:56:51.045Z,120.47
2022-09-17T13:59:29.039Z,120.37
2022-09-17T14:02:27.448Z,120.73
2022-09-17T14:05:36.266Z,120.40
2022-09-17T14:08:15.810Z,120.87
2022-09-17T14:10:44.147Z,121.00
2022-09-17T14:13:41.075Z,120.67
2022-09-17T14:16:29.094Z,121.43
2022-09-17T14:19:16.382Z,120.43
2022-09-17T14:22:22.783Z,121.80
2022-09-17T14:24:54.876Z,121.60
2022-09-17T14:27:56.690Z,120.07
2022-09-17T14:30:30.328Z,121.53
2022-09-17T14:33:26.076Z,121.23
2022-09-17T14:36:13.910Z,121.90
2022-09-17T14:38:48.575Z,122.20
2022-09-17T14:41:26.207Z,121.67
2022-09-17T14:44:14.815Z,122.00
2022-09-17T14:47:03.921Z,121.33
2022-09-17T14:49:37.226Z,121.20
2022-09-17T14:52:32.511Z,121.00
2022-09-17T14:55:21.413Z,120.70
2022-09-17T14:57:58.555Z,121.07
2022-09-17T15:00:38.002Z,120.80
2022-09-17T15:03:06.641Z,120.67
2022-09-17T15:05:43.207Z,121.23
2022-09-17T15:08:10.510Z,121.60
2022-09-17T15:10:46.799Z,121.00
2022-09-17T15:13:19.617Z,121.40
2022-09-17T15:16:26.606Z,120.77
2022-09-17T15:19:00.693Z,120.40
2022-09-17T15:21:41.626Z,121.17
2022-09-17T15:24:39.551Z,120.37
2022-09-17T15:27:29.500Z,120.37
2022-09-17T15:30:16.684Z,120.00
2022-09-17T15:32:58.931Z,119.20
2022-09-17T15:35:33.991Z,119.77
2022-09-17T15:38:23.128Z,119.17
2022-09-17T15:40:53.384Z,119.70
2022-09-17T15:43:34.798Z,120.00
2022-09-17T15:46:27.743Z,120.27
2022-09-17T15:48:58.682Z,120.47
2022-09-17T15:51:39.000Z,120.00
2022-09-17T15:54:07.092Z,119.77
2022-09-17T15:56:37.884Z,120.00
2022-09-17T15:59:28.752Z,120.60
2022-09-17T16:02:00.156Z,121.10
2022-09-17T16:04:33.602Z,120.20
2022-09-17T16:07:30.347Z,120.37
2022-09-17T16:09:59.250Z,120.53
2022-09-17T16:12:28.892Z,121.20
2022-09-17T16:15:00.669Z,120.90
2022-09-17T16:17:36.799Z,121.13
2022-09-17T16:20:16.162Z,121.07
2022-09-17T16:22:45.001Z,120.37
2022-09-17T16:25:12.701Z,121.50
2022-09-17T16:27:48.069Z,120.83
2022-09-17T16:30:19.133Z,121.60
2022-09-17T16:32:47.105Z,120.83
2022-09-17T16:35:17.945Z,121.10
2022-09-17T16:37:53.844Z,121.17
2022-09-17T16:40:23.346Z,121.37
2022-09-17T16:42:50.799Z,121.40
2022-09-17T16:45:17.824Z,120.60
2022-09-17T16:47:45.287Z,120.70
2022-09-17T16:50:16.931Z,121.20
2022-09-17T16:52:45.655Z,121.20
2022-09-17T16:55:16.081Z,121.60
2022-09-17T16:57:44.042Z,120.97
2022-09-17T17:00:16.982Z,121.50
2022-09-17T17:02:48.230Z,120.60
2022-09-17T17:05:15.930Z,121.47
2022-09-17T17:07:43.959Z,121.10
2022-09-17T17:10:11.402Z,120.13
2022-09-17T17:12:38.853Z,120.00
2022-09-17T17:15:07.704Z,120.80
2022-09-17T17:17:35.839Z,121.33
2022-09-17T17:20:08.926Z,121.30
2022-09-17T17:22:37.696Z,120.80
2022-09-17T17:25:06.643Z,120.47
2022-09-17T17:27:34.566Z,120.80
2022-09-17T17:30:04.555Z,120.37
2022-09-17T17:32:32.770Z,120.57
2022-09-17T17:35:00.158Z,121.87
2022-09-17T17:37:27.960Z,121.43
2022-09-17T17:39:56.255Z,120.67
2022-09-17T17:42:23.298Z,121.20
2022-09-17T17:44:50.751Z,121.17
2022-09-17T17:47:18.218Z,121.20
2022-09-17T17:49:45.580Z,121.47
2022-09-17T17:52:13.042Z,121.40
2022-09-17T17:54:40.574Z,120.07
2022-09-17T17:57:08.052Z,121.17
2022-09-17T17:59:35.423Z,121.60
2022-09-17T18:02:02.914Z,121.97
2022-09-17T18:04:30.407Z,121.10
2022-09-17T18:06:58.024Z,122.90
2022-09-17T18:09:25.427Z,122.20
2022-09-17T18:11:54.193Z,121.43
2022-09-17T18:14:21.568Z,121.73
2022-09-17T18:16:49.447Z,121.47
2022-09-17T18:19:16.931Z,121.67
2022-09-17T18:21:44.399Z,121.47
2022-09-17T18:24:11.831Z,122.07
2022-09-17T18:26:39.319Z,121.30
2022-09-17T18:29:08.250Z,120.57
2022-09-17T18:31:37.678Z,120.90
2022-09-17T18:34:13.004Z,121.90
2022-09-17T18:36:41.931Z,121.53
2022-09-17T18:42:00.719Z,122.87
2022-09-17T18:44:28.112Z,122.57
2022-09-17T18:46:55.596Z,122.40
2022-09-17T18:49:23.075Z,121.40
2022-09-17T18:51:50.435Z,121.57
2022-09-17T18:54:17.410Z,122.50
2022-09-17T18:56:44.831Z,121.70
2022-09-17T18:59:12.320Z,122.13
2022-09-17T19:01:39.973Z,122.40
2022-09-17T19:04:08.228Z,119.67
2022-09-17T19:06:35.529Z,121.07
2022-09-17T19:09:04.664Z,122.30
2022-09-17T19:11:31.703Z,122.80
2022-09-17T19:13:59.342Z,121.43
2022-09-17T19:16:26.858Z,121.27
2022-09-17T19:18:54.352Z,121.37
2022-09-17T19:21:21.918Z,122.67
2022-09-17T19:23:51.564Z,121.60
2022-09-17T19:26:22.428Z,122.57
2022-09-17T19:28:54.729Z,122.10
2022-09-17T19:31:23.077Z,121.80
2022-09-17T19:33:51.578Z,122.27
2022-09-17T19:36:20.384Z,122.77
2022-09-17T19:38:48.404Z,121.70
2022-09-17T19:41:18.935Z,120.50
2022-09-17T19:43:47.005Z,121.70
2022-09-17T19:46:18.678Z,122.27
2022-09-17T19:48:52.546Z,121.70
2022-09-17T19:51:23.811Z,122.17
2022-09-17T19:53:51.964Z,121.20
2022-09-17T19:56:26.023Z,121.77
2022-09-17T19:58:53.758Z,122.40
2022-09-17T20:01:21.483Z,122.40
2022-09-17T20:03:49.022Z,121.77
2022-09-17T20:06:20.586Z,121.60
2022-09-17T20:08:51.665Z,122.00
2022-09-17T20:11:22.574Z,121.63
2022-09-17T20:13:50.375Z,122.90
2022-09-17T20:16:22.151Z,122.00
2022-09-17T20:18:50.502Z,121.57
2022-09-17T20:21:25.362Z,122.20
2022-09-17T20:23:52.777Z,122.03
2022-09-17T20:26:20.669Z,121.07
2022-09-17T20:28:51.708Z,122.60
2022-09-17T20:31:30.584Z,122.87
2022-09-17T20:34:01.045Z,122.07
2022-09-17T20:36:33.164Z,121.37
2022-09-17T20:39:21.929Z,122.07
2022-09-17T20:41:48.395Z,120.73
2022-09-17T20:44:17.368Z,122.23
2022-09-17T20:46:45.016Z,122.27
2022-09-17T20:49:12.538Z,122.30
2022-09-17T20:51:39.958Z,122.07
2022-09-17T20:54:08.554Z,122.87
2022-09-17T20:56:36.426Z,121.30
2022-09-17T20:59:17.622Z,122.50
2022-09-17T21:01:49.280Z,120.97
2022-09-17T21:04:19.705Z,122.70
2022-09-17T21:06:52.366Z,122.47
2022-09-17T21:09:20.102Z,121.97
2022-09-17T21:11:48.986Z,122.40
2022-09-17T21:14:17.906Z,122.70
2022-09-17T21:16:46.390Z,122.80
2022-09-17T21:19:16.485Z,121.40
2022-09-17T21:21:44.352Z,123.07
2022-09-17T21:24:12.170Z,122.57
2022-09-17T21:26:39.604Z,122.17
2022-09-17T21:29:07.095Z,121.87
2022-09-17T21:31:39.402Z,121.80
2022-09-17T21:34:11.511Z,122.00
2022-09-17T21:36:41.467Z,121.60
2022-09-17T21:39:14.959Z,122.60
2022-09-17T21:41:43.997Z,121.20
2022-09-17T21:44:12.857Z,122.00
2022-09-17T21:46:41.695Z,122.97
2022-09-17T21:49:10.070Z,121.90
2022-09-17T21:51:40.819Z,121.60
2022-09-17T21:54:15.692Z,122.47
2022-09-17T21:56:44.531Z,121.00
2022-09-17T21:59:14.555Z,122.70
2022-09-17T22:01:48.359Z,121.13
2022-09-17T22:04:20.691Z,123.07
2022-09-17T22:06:49.826Z,122.30
2022-09-17T22:09:25.489Z,121.83
2022-09-17T22:11:53.781Z,121.90
2022-09-17T22:14:23.425Z,120.70
2022-09-17T22:16:54.395Z,120.93
2022-09-17T22:19:24.147Z,122.87
2022-09-17T22:21:54.403Z,122.20
2022-09-17T22:24:22.893Z,122.10
2022-09-17T22:26:57.263Z,122.43
2022-09-17T22:29:28.357Z,122.47
2022-09-17T22:31:57.080Z,122.20
2022-09-17T22:34:25.764Z,122.50
2022-09-17T22:36:53.187Z,121.07
2022-09-17T22:39:23.663Z,121.57
2022-09-17T22:41:51.577Z,122.47
2022-09-17T22:44:20.645Z,122.40
2022-09-17T22:46:50.544Z,122.50
2022-09-17T22:49:19.266Z,121.17
2022-09-17T22:51:47.135Z,121.97
2022-09-17T22:54:17.543Z,122.70
2022-09-17T22:56:46.000Z,122.07
2022-09-17T22:59:13.383Z,121.00
2022-09-17T23:01:41.528Z,122.03
2022-09-17T23:04:09.158Z,121.87
2022-09-17T23:06:39.450Z,122.00
2022-09-17T23:09:07.763Z,121.33
2022-09-17T23:11:38.657Z,122.00
2022-09-17T23:14:12.677Z,122.63
2022-09-17T23:16:46.336Z,121.60
2022-09-17T23:19:16.452Z,122.20
2022-09-17T23:21:44.859Z,122.20
2022-09-17T23:24:20.945Z,122.13
2022-09-17T23:26:49.735Z,122.20
2022-09-17T23:29:17.722Z,122.10
2022-09-17T23:31:45.414Z,122.20
2022-09-17T23:34:12.413Z,121.60
2022-09-17T23:36:40.255Z,121.37
2022-09-17T23:39:10.410Z,121.67
2022-09-17T23:41:43.076Z,122.20
2022-09-17T23:44:15.389Z,121.90
2022-09-17T23:46:45.494Z,120.97
2022-09-17T23:49:14.565Z,122.27
2022-09-17T23:51:42.536Z,122.47
2022-09-17T23:54:10.325Z,122.10
2022-09-17T23:56:37.519Z,121.40
2022-09-17T23:59:05.079Z,122.63
